Time;durP1;ratioP1;P1;durP2;ratioP2;P2;SDS_P1;SDS_P2;PMS_P1;PMS_P2;Temp;Humidity;BMP_temperature;BMP_pressure;BME280_temperature;BME280_humidity;BME280_pressure;Samples;Min_cycle;Max_cycle;Signal;HPM_P1;HPM_P2
2023/07/17 00:02:15;;;;;;;11.40;10.30;;;16.70;1.00;;;;;;2614740;54;20126;-73
2023/07/17 00:08:06;;;;;;;12.10;10.97;;;16.60;1.00;;;;;;2614423;54;20118;-72
2023/07/17 00:13:54;;;;;;;10.90;9.87;;;17.00;1.00;;;;;;2613257;46;20411;-72
2023/07/17 00:29:40;;;;;;;14.53;10.33;;;17.30;1.00;;;;;;2612388;54;20444;-73
2023/07/17 00:35:28;;;;;;;10.00;9.13;;;17.80;1.00;;;;;;2614374;54;20384;-72
2023/07/17 00:41:16;;;;;;;11.60;10.70;;;18.00;1.00;;;;;;2613437;39;20643;-71
2023/07/17 00:47:05;;;;;;;8.80;8.10;;;17.80;1.00;;;;;;2612637;54;20133;-72
2023/07/17 00:52:53;;;;;;;9.17;8.47;;;17.60;1.00;;;;;;2613907;54;20391;-73
2023/07/17 00:58:41;;;;;;;8.90;8.27;;;17.40;1.00;;;;;;2614045;54;20352;-72
2023/07/17 01:04:28;;;;;;;8.03;6.17;;;17.40;1.00;;;;;;2612071;39;20248;-75
2023/07/17 01:10:15;;;;;;;9.10;6.67;;;17.10;1.00;;;;;;2614910;39;20557;-75
2023/07/17 01:16:04;;;;;;;7.37;6.80;;;17.00;1.00;;;;;;2614715;54;20153;-74
2023/07/17 01:31:42;;;;;;;7.23;6.67;;;16.90;1.00;;;;;;2613379;54;20412;-75
2023/07/17 01:40:52;;;;;;;13.13;7.70;;;16.90;1.00;;;;;;2611794;54;21030;-74
2023/07/17 01:46:39;;;;;;;9.13;8.20;;;16.90;1.00;;;;;;2613242;54;20399;-75
2023/07/17 01:52:27;;;;;;;17.00;9.30;;;16.80;1.00;;;;;;2612624;54;20130;-74
2023/07/17 01:58:15;;;;;;;8.63;7.80;;;16.70;1.00;;;;;;2612049;54;20414;-74
2023/07/17 02:04:02;;;;;;;7.77;6.97;;;16.80;1.00;;;;;;2612524;54;20160;-75
2023/07/17 02:09:50;;;;;;;9.00;7.77;;;16.90;1.00;;;;;;2613312;54;21403;-71
2023/07/17 02:15:38;;;;;;;7.83;7.10;;;16.90;1.00;;;;;;2612935;54;20130;-72
2023/07/17 02:21:25;;;;;;;8.70;7.80;;;16.80;1.00;;;;;;2614271;39;20497;-71
2023/07/17 02:27:13;;;;;;;9.70;8.03;;;16.80;1.00;;;;;;2613919;54;20178;-71
2023/07/17 02:33:01;;;;;;;7.83;7.13;;;16.80;1.00;;;;;;2613260;54;20130;-72
2023/07/17 02:38:48;;;;;;;8.03;7.50;;;16.70;1.00;;;;;;2614164;54;20123;-71
2023/07/17 02:44:36;;;;;;;7.40;6.90;;;16.70;1.00;;;;;;2614294;54;20134;-71
2023/07/17 02:50:24;;;;;;;7.23;6.70;;;16.70;1.00;;;;;;2613497;54;20134;-71
2023/07/17 02:56:12;;;;;;;6.97;6.47;;;16.70;1.00;;;;;;2614916;54;20134;-71
2023/07/17 03:01:59;;;;;;;6.90;6.40;;;16.50;1.00;;;;;;2613809;54;20646;-70
2023/07/17 03:07:47;;;;;;;7.47;6.80;;;16.40;1.00;;;;;;2612807;54;20146;-71
2023/07/17 03:13:35;;;;;;;7.30;6.80;;;16.40;1.00;;;;;;2612040;54;20122;-71
2023/07/17 03:19:23;;;;;;;6.90;6.30;;;16.30;1.00;;;;;;2613905;54;20148;-71
2023/07/17 03:29:29;;;;;;;6.67;6.27;;;16.20;1.00;;;;;;2614908;54;20422;-71
2023/07/17 03:35:16;;;;;;;7.60;6.83;;;16.10;1.00;;;;;;2613869;54;20410;-71
2023/07/17 03:41:05;;;;;;;7.03;6.60;;;15.90;1.00;;;;;;2614120;54;20146;-71
2023/07/17 03:46:52;;;;;;;6.77;6.17;;;15.70;1.00;;;;;;2613703;54;20371;-71
2023/07/17 03:52:40;;;;;;;6.30;5.40;;;15.50;1.00;;;;;;2613290;54;20141;-71
2023/07/17 03:55:43;;;;;;;6.27;5.77;;;15.40;1.00;;;;;;2614222;54;20403;-70
2023/07/17 03:58:09;;;;;;;4.70;4.40;;;15.40;1.00;;;;;;2613463;54;20291;-71
2023/07/17 04:03:56;;;;;;;6.80;6.03;;;15.30;1.00;;;;;;2614808;54;20134;-70
2023/07/17 04:09:45;;;;;;;6.17;5.67;;;15.20;1.00;;;;;;2614223;39;20875;-70
2023/07/17 04:15:35;;;;;;;5.90;5.30;;;15.10;1.00;;;;;;2613429;54;20133;-70
2023/07/17 04:21:23;;;;;;;4.80;4.43;;;15.00;1.00;;;;;;2613383;54;20383;-73
2023/07/17 04:30:35;;;;;;;6.13;5.53;;;15.30;1.00;;;;;;2613095;54;20522;-71
2023/07/17 04:36:23;;;;;;;6.33;5.77;;;15.20;1.00;;;;;;2612155;54;20390;-71
2023/07/17 04:42:10;;;;;;;7.13;5.60;;;15.30;1.00;;;;;;2610772;54;20148;-72
2023/07/17 04:47:58;;;;;;;7.50;4.60;;;15.70;1.00;;;;;;2613279;54;20142;-71
2023/07/17 04:53:47;;;;;;;5.43;5.03;;;15.90;1.00;;;;;;2612704;54;20186;-71
2023/07/17 04:59:34;;;;;;;8.30;6.60;;;16.20;1.00;;;;;;2611389;54;20209;-72
2023/07/17 05:05:22;;;;;;;7.53;5.60;;;16.40;1.00;;;;;;2613859;54;20295;-71
2023/07/17 05:11:11;;;;;;;5.83;5.33;;;16.80;1.00;;;;;;2614052;54;20167;-74
2023/07/17 05:16:59;;;;;;;7.33;6.83;;;17.00;1.00;;;;;;2614415;54;20464;-71
2023/07/17 05:22:47;;;;;;;10.40;7.07;;;17.50;1.00;;;;;;2613560;54;20148;-72
2023/07/17 05:26:03;;;;;;;7.50;7.00;;;17.50;1.00;;;;;;2613822;54;20423;-71
2023/07/17 05:28:29;;;;;;;8.17;7.40;;;17.40;1.00;;;;;;2612348;54;20172;-70
2023/07/17 05:34:17;;;;;;;8.70;7.90;;;17.40;1.00;;;;;;2612355;54;20975;-74
2023/07/17 05:40:05;;;;;;;10.47;8.40;;;17.60;1.00;;;;;;2612955;54;20135;-72
2023/07/17 05:45:53;;;;;;;9.20;8.30;;;17.80;1.00;;;;;;2614360;54;20362;-70
2023/07/17 05:51:41;;;;;;;10.07;9.07;;;17.90;1.00;;;;;;2614475;54;20160;-71
2023/07/17 05:57:29;;;;;;;9.70;8.50;;;17.90;1.00;;;;;;2607556;54;20142;-71
2023/07/17 06:03:17;;;;;;;8.93;8.27;;;18.50;1.00;;;;;;2609002;54;20215;-70
2023/07/17 06:09:06;;;;;;;10.03;9.23;;;18.20;1.00;;;;;;2613842;54;20403;-71
2023/07/17 06:14:53;;;;;;;9.90;9.10;;;18.20;1.00;;;;;;2614542;39;20778;-70
2023/07/17 06:20:40;;;;;;;15.57;10.60;;;18.60;1.00;;;;;;2612895;54;20188;-71
2023/07/17 06:30:31;;;;;;;11.60;10.70;;;18.60;1.00;;;;;;2612365;54;21016;-71
2023/07/17 06:36:19;;;;;;;11.63;10.73;;;18.90;1.00;;;;;;2612784;54;20398;-71
2023/07/17 06:42:10;;;;;;;12.57;11.57;;;19.10;1.00;;;;;;2612836;54;20171;-72
2023/07/17 06:47:57;;;;;;;13.47;12.47;;;19.00;1.00;;;;;;2612772;54;20424;-70
2023/07/17 06:53:45;;;;;;;14.37;13.20;;;19.50;1.00;;;;;;2611897;39;20500;-71
2023/07/17 06:59:33;;;;;;;13.80;12.90;;;19.20;1.00;;;;;;2611459;54;20192;-70
2023/07/17 07:05:21;;;;;;;14.83;13.50;;;19.50;1.00;;;;;;2613559;54;20126;-72
2023/07/17 07:11:10;;;;;;;14.17;13.23;;;19.70;1.00;;;;;;2613255;54;20133;-72
2023/07/17 07:16:58;;;;;;;14.30;13.40;;;20.00;1.00;;;;;;2612475;54;20427;-71
2023/07/17 07:22:46;;;;;;;15.13;13.53;;;19.80;1.00;;;;;;2611927;54;20130;-71
2023/07/17 07:26:03;;;;;;;14.97;13.77;;;20.00;1.00;;;;;;2613313;39;20889;-70
2023/07/17 07:28:28;;;;;;;15.60;14.50;;;19.80;1.00;;;;;;2610541;54;20863;-72
2023/07/17 07:34:15;;;;;;;13.50;12.33;;;20.40;1.00;;;;;;2612405;39;20672;-71
2023/07/17 07:40:06;;;;;;;14.57;13.37;;;21.40;1.00;;;;;;2612453;54;20134;-71
2023/07/17 07:45:53;;;;;;;14.10;13.00;;;21.10;1.00;;;;;;2613416;54;20399;-71
2023/07/17 07:51:41;;;;;;;13.87;12.87;;;21.50;1.00;;;;;;2613655;54;20255;-70
2023/07/17 07:57:29;;;;;;;13.47;12.60;;;21.90;1.00;;;;;;2611296;54;20118;-70
2023/07/17 08:03:16;;;;;;;13.70;12.80;;;21.80;1.00;;;;;;2612224;54;20150;-71
2023/07/17 08:09:04;;;;;;;15.20;13.90;;;22.20;1.00;;;;;;2613349;54;20135;-70
2023/07/17 08:14:53;;;;;;;14.00;12.90;;;20.60;1.00;;;;;;2614934;39;20564;-71
2023/07/17 08:20:40;;;;;;;14.07;12.97;;;21.40;1.00;;;;;;2613703;54;20399;-71
2023/07/17 08:30:31;;;;;;;14.20;13.23;;;22.40;1.00;;;;;;2612538;54;20992;-71
2023/07/17 08:36:19;;;;;;;13.87;12.50;;;20.80;1.00;;;;;;2614841;39;20808;-70
2023/07/17 08:42:08;;;;;;;14.60;13.60;;;21.30;1.00;;;;;;2613615;46;20420;-71
2023/07/17 08:47:56;;;;;;;14.70;13.53;;;21.00;1.00;;;;;;2613330;54;20403;-70
2023/07/17 08:53:44;;;;;;;12.13;11.43;;;20.70;1.00;;;;;;2613101;54;20395;-71
2023/07/17 08:59:34;;;;;;;14.80;13.70;;;20.30;1.00;;;;;;2613222;54;20376;-73
2023/07/17 09:05:21;;;;;;;16.20;15.10;;;22.00;1.00;;;;;;2612845;54;20402;-71
2023/07/17 09:11:09;;;;;;;14.20;13.40;;;23.10;1.00;;;;;;2613232;54;20158;-71
2023/07/17 09:17:02;;;;;;;15.43;14.53;;;22.40;1.00;;;;;;2613169;46;20415;-71
2023/07/17 09:22:55;;;;;;;14.60;13.63;;;22.50;1.00;;;;;;2612663;39;20788;-70
2023/07/17 09:26:00;;;;;;;16.03;14.87;;;21.90;1.00;;;;;;2612884;39;21167;-70
2023/07/17 09:28:29;;;;;;;13.93;13.03;;;22.40;1.00;;;;;;2610778;39;20819;-71
2023/07/17 09:34:18;;;;;;;14.83;13.93;;;22.30;1.00;;;;;;2611858;54;20395;-71
2023/07/17 09:40:07;;;;;;;13.90;13.07;;;22.90;1.00;;;;;;2612283;54;20504;-71
2023/07/17 09:45:59;;;;;;;14.00;12.93;;;21.60;1.00;;;;;;2613700;54;20508;-70
2023/07/17 09:51:49;;;;;;;14.40;13.67;;;21.30;1.00;;;;;;2614128;54;20395;-70
2023/07/17 09:57:38;;;;;;;13.07;12.27;;;21.70;1.00;;;;;;2611755;54;20411;-71
2023/07/17 10:03:26;;;;;;;13.50;12.70;;;21.50;1.00;;;;;;2613589;54;20847;-71
2023/07/17 10:09:20;;;;;;;14.63;13.53;;;21.10;1.00;;;;;;2612558;54;20436;-71
2023/07/17 10:15:10;;;;;;;13.87;12.77;;;22.20;1.00;;;;;;2612917;54;20387;-71
2023/07/17 10:21:01;;;;;;;13.20;12.20;;;23.30;1.00;;;;;;2613603;54;20399;-71
2023/07/17 10:30:30;;;;;;;13.23;12.43;;;22.30;1.00;;;;;;2613439;54;20431;-70
2023/07/17 10:42:47;;;;;;;13.57;12.67;;;22.20;1.00;;;;;;2614178;39;20719;-70
2023/07/17 10:48:34;;;;;;;13.67;12.23;;;21.20;1.00;;;;;;2613743;54;20890;-72
2023/07/17 10:54:24;;;;;;;14.17;12.97;;;21.70;1.00;;;;;;2613648;54;20403;-71
2023/07/17 11:00:12;;;;;;;14.60;13.50;;;21.70;1.00;;;;;;2612990;47;20841;-71
2023/07/17 11:06:00;;;;;;;14.17;13.27;;;21.70;1.00;;;;;;2612935;46;20454;-72
2023/07/17 11:11:49;;;;;;;13.90;13.00;;;21.60;1.00;;;;;;2613871;39;20527;-71
2023/07/17 11:17:37;;;;;;;13.63;12.83;;;21.20;1.00;;;;;;2613511;54;20403;-71
2023/07/17 11:23:24;;;;;;;14.23;13.30;;;21.90;1.00;;;;;;2612604;54;20396;-71
2023/07/17 11:26:03;;;;;;;13.60;12.70;;;22.00;1.00;;;;;;2612654;54;20427;-72
2023/07/17 11:28:29;;;;;;;13.93;12.60;;;22.00;1.00;;;;;;2611339;39;20567;-71
2023/07/17 11:34:19;;;;;;;13.93;13.03;;;21.70;1.00;;;;;;2612142;39;20843;-70
2023/07/17 11:40:08;;;;;;;15.27;14.17;;;21.40;1.00;;;;;;2611791;54;20399;-71
2023/07/17 11:46:01;;;;;;;15.27;14.23;;;22.80;1.00;;;;;;2612565;54;20500;-71
2023/07/17 11:51:48;;;;;;;14.27;13.27;;;24.00;1.00;;;;;;2612562;54;20482;-72
2023/07/17 11:57:36;;;;;;;15.73;14.43;;;24.50;1.00;;;;;;2613462;54;20134;-72
2023/07/17 12:03:24;;;;;;;14.20;13.30;;;24.30;1.00;;;;;;2614377;54;20160;-71
2023/07/17 12:09:12;;;;;;;14.77;13.90;;;24.00;1.00;;;;;;2613698;54;20392;-71
2023/07/17 12:15:00;;;;;;;16.70;15.40;;;23.20;1.00;;;;;;2612631;54;20134;-71
2023/07/17 12:20:48;;;;;;;14.07;13.07;;;22.60;1.00;;;;;;2613697;54;20251;-72
2023/07/17 12:30:33;;;;;;;13.53;12.73;;;23.20;1.00;;;;;;2613830;54;20399;-71
2023/07/17 12:36:20;;;;;;;13.70;12.80;;;23.40;1.00;;;;;;2613845;54;20476;-71
2023/07/17 12:42:08;;;;;;;15.60;14.50;;;24.00;1.00;;;;;;2612822;54;20138;-71
2023/07/17 12:47:56;;;;;;;15.93;14.80;;;24.20;1.00;;;;;;2614478;39;20705;-72
2023/07/17 12:53:44;;;;;;;14.73;13.80;;;25.50;1.00;;;;;;2614161;54;20657;-72
2023/07/17 12:59:31;;;;;;;14.43;13.53;;;24.80;1.00;;;;;;2610670;54;20161;-71
2023/07/17 13:05:19;;;;;;;14.10;13.30;;;23.80;1.00;;;;;;2613202;54;20135;-72
2023/07/17 13:11:07;;;;;;;13.90;13.00;;;24.50;1.00;;;;;;2614394;54;20134;-73
2023/07/17 13:16:55;;;;;;;14.60;13.80;;;25.00;1.00;;;;;;2610695;54;20698;-72
2023/07/17 13:22:43;;;;;;;13.70;13.00;;;25.40;1.00;;;;;;2609272;54;20161;-71
2023/07/17 13:26:03;;;;;;;14.43;13.63;;;24.30;1.00;;;;;;2609720;54;20922;-71
2023/07/17 13:28:29;;;;;;;13.57;12.80;;;25.60;1.00;;;;;;2612372;54;20180;-71
2023/07/17 13:34:17;;;;;;;15.13;14.23;;;24.80;1.00;;;;;;2612693;54;20180;-70
2023/07/17 13:40:05;;;;;;;14.77;13.87;;;25.20;1.00;;;;;;2613657;54;20169;-72
2023/07/17 13:45:53;;;;;;;15.33;14.33;;;26.00;1.00;;;;;;2611399;39;20493;-71
2023/07/17 13:51:42;;;;;;;15.70;14.43;;;25.20;1.00;;;;;;2612475;54;20123;-71
2023/07/17 13:57:29;;;;;;;14.70;13.70;;;25.50;1.00;;;;;;2613246;54;20445;-70
2023/07/17 14:03:17;;;;;;;14.87;13.97;;;23.50;1.00;;;;;;2612130;54;20753;-71
2023/07/17 14:09:05;;;;;;;14.50;13.60;;;23.90;1.00;;;;;;2612524;54;20236;-71
2023/07/17 14:14:52;;;;;;;14.67;13.77;;;23.20;1.00;;;;;;2612636;39;20547;-71
2023/07/17 14:20:40;;;;;;;14.63;13.83;;;23.60;1.00;;;;;;2613504;54;20157;-71
2023/07/17 14:30:34;;;;;;;14.67;13.80;;;23.80;1.00;;;;;;2611993;54;20399;-70
2023/07/17 14:36:21;;;;;;;13.30;12.40;;;23.50;1.00;;;;;;2614028;39;20702;-70
2023/07/17 14:42:09;;;;;;;13.83;12.93;;;23.40;1.00;;;;;;2613563;39;20658;-72
2023/07/17 14:47:56;;;;;;;13.30;12.60;;;23.00;1.00;;;;;;2613371;54;20126;-72
2023/07/17 14:53:44;;;;;;;14.70;13.70;;;22.80;1.00;;;;;;2613572;54;20154;-71
2023/07/17 14:59:32;;;;;;;14.03;13.13;;;22.60;1.00;;;;;;2611647;54;20960;-71
2023/07/17 15:05:20;;;;;;;13.77;12.97;;;21.20;1.00;;;;;;2613693;54;20965;-72
2023/07/17 15:11:08;;;;;;;12.70;11.63;;;19.60;1.00;;;;;;2613468;54;20456;-72
2023/07/17 15:16:56;;;;;;;6.00;4.03;;;17.40;1.00;;;;;;2611816;54;20879;-70
2023/07/17 15:22:44;;;;;;;8.43;5.20;;;16.30;1.00;;;;;;2613964;54;20126;-71
2023/07/17 15:26:04;;;;;;;6.80;5.13;;;16.10;1.00;;;;;;2614110;54;20439;-71
2023/07/17 15:28:30;;;;;;;7.87;4.13;;;16.20;1.00;;;;;;2613893;39;20794;-70
2023/07/17 15:34:18;;;;;;;8.10;5.70;;;16.20;1.00;;;;;;2614944;54;20234;-69
2023/07/17 15:40:07;;;;;;;9.80;4.93;;;16.20;1.00;;;;;;2615439;39;20649;-70
2023/07/17 15:45:54;;;;;;;4.90;4.27;;;16.30;1.00;;;;;;2614393;46;20452;-70
2023/07/17 15:51:42;;;;;;;9.47;5.20;;;16.50;1.00;;;;;;2614601;54;20162;-71
2023/07/17 15:54:45;;;;;;;8.23;5.13;;;16.60;1.00;;;;;;2614662;54;20419;-70
2023/07/17 15:57:12;;;;;;;5.57;4.30;;;16.50;1.00;;;;;;2614473;46;20211;-70
2023/07/17 16:02:59;;;;;;;6.23;4.97;;;16.70;1.00;;;;;;2614830;54;20945;-71
2023/07/17 16:08:47;;;;;;;6.40;4.73;;;16.80;1.00;;;;;;2612281;31;20672;-71
2023/07/17 16:14:42;;;;;;;5.60;5.10;;;17.30;1.00;;;;;;2614692;54;20637;-69
2023/07/17 16:20:30;;;;;;;5.70;5.10;;;17.60;1.00;;;;;;2614878;54;20426;-71
2023/07/17 16:30:36;;;;;;;5.70;5.20;;;17.50;1.00;;;;;;2614278;54;20371;-70
2023/07/17 16:36:31;;;;;;;6.70;4.80;;;17.40;1.00;;;;;;2614321;54;20399;-70
2023/07/17 16:42:19;;;;;;;5.53;5.13;;;17.10;1.00;;;;;;2614420;54;20425;-70
2023/07/17 16:48:07;;;;;;;4.87;4.47;;;17.00;1.00;;;;;;2615104;39;20476;-70
2023/07/17 16:53:55;;;;;;;5.90;4.60;;;16.60;1.00;;;;;;2614750;54;20235;-71
2023/07/17 16:59:42;;;;;;;5.77;3.10;;;16.60;1.00;;;;;;2613329;54;20169;-70
2023/07/17 17:05:31;;;;;;;4.63;2.87;;;16.70;1.00;;;;;;2614889;39;20388;-71
2023/07/17 17:11:18;;;;;;;4.23;3.23;;;17.00;1.00;;;;;;2611594;54;20303;-70
2023/07/17 17:17:06;;;;;;;4.03;3.40;;;18.70;1.00;;;;;;2609984;54;20129;-70
2023/07/17 17:22:53;;;;;;;4.07;3.43;;;18.80;1.00;;;;;;2614661;39;20514;-69
2023/07/17 17:26:04;;;;;;;2.70;2.50;;;18.40;1.00;;;;;;2612299;54;20503;-70
2023/07/17 17:28:30;;;;;;;3.00;2.80;;;18.30;1.00;;;;;;2612906;54;20200;-69
2023/07/17 17:34:17;;;;;;;3.87;2.83;;;18.30;1.00;;;;;;2613592;46;20149;-71
2023/07/17 17:40:08;;;;;;;4.07;3.20;;;18.20;1.00;;;;;;2613442;54;20127;-71
2023/07/17 17:45:56;;;;;;;3.50;3.20;;;17.80;1.00;;;;;;2613667;54;20960;-70
2023/07/17 17:51:44;;;;;;;3.70;3.37;;;17.70;1.00;;;;;;2613127;54;20130;-70
2023/07/17 17:57:31;;;;;;;4.47;3.63;;;17.70;1.00;;;;;;2613449;54;20253;-70
2023/07/17 18:03:22;;;;;;;3.80;3.50;;;17.70;1.00;;;;;;2614011;54;20314;-70
2023/07/17 18:09:10;;;;;;;6.33;3.80;;;17.60;1.00;;;;;;2613508;54;20582;-70
2023/07/17 18:14:57;;;;;;;6.73;3.50;;;17.50;1.00;;;;;;2613493;54;20162;-69
2023/07/17 18:20:45;;;;;;;4.03;3.67;;;17.40;1.00;;;;;;2613184;54;20134;-71
2023/07/17 18:30:35;;;;;;;5.63;4.30;;;17.20;1.00;;;;;;2613497;54;20437;-72
2023/07/17 18:36:24;;;;;;;4.60;3.70;;;17.10;1.00;;;;;;2610718;54;20413;-71
2023/07/17 18:42:11;;;;;;;4.77;4.13;;;17.00;1.00;;;;;;2613097;54;20371;-70
2023/07/17 18:47:59;;;;;;;5.07;3.90;;;17.00;1.00;;;;;;2613714;54;20214;-72
2023/07/17 18:53:47;;;;;;;4.23;3.73;;;16.90;1.00;;;;;;2613379;54;20211;-70
2023/07/17 18:59:34;;;;;;;4.70;3.67;;;16.70;1.00;;;;;;2613267;54;20138;-72
2023/07/17 19:05:22;;;;;;;3.83;3.53;;;16.60;1.00;;;;;;2613357;54;20147;-70
2023/07/17 19:11:17;;;;;;;4.20;3.80;;;16.60;1.00;;;;;;2614057;54;20126;-70
2023/07/17 19:17:05;;;;;;;4.20;3.73;;;16.30;1.00;;;;;;2613353;54;21187;-69
2023/07/17 19:22:53;;;;;;;9.70;3.90;;;16.20;1.00;;;;;;2612805;54;20792;-70
2023/07/17 19:26:05;;;;;;;4.50;4.10;;;16.10;1.00;;;;;;2612492;54;20479;-70
2023/07/17 19:28:31;;;;;;;5.10;3.47;;;15.90;1.00;;;;;;2609185;54;20147;-70
2023/07/17 19:34:18;;;;;;;5.07;4.10;;;15.80;1.00;;;;;;2613184;54;20254;-70
2023/07/17 19:40:07;;;;;;;3.70;3.30;;;15.60;1.00;;;;;;2613364;54;20152;-73
2023/07/17 19:45:55;;;;;;;11.80;4.30;;;15.50;1.00;;;;;;2612472;54;20399;-70
2023/07/17 19:51:44;;;;;;;4.40;4.00;;;15.40;1.00;;;;;;2613104;54;20406;-70
2023/07/17 19:57:32;;;;;;;9.03;4.13;;;15.30;1.00;;;;;;2613175;54;20394;-70
2023/07/17 20:03:20;;;;;;;4.60;3.67;;;15.30;1.00;;;;;;2613226;54;20158;-71
2023/07/17 20:09:08;;;;;;;5.77;4.17;;;15.20;1.00;;;;;;2613224;46;20608;-71
2023/07/17 20:14:55;;;;;;;5.10;3.70;;;15.00;1.00;;;;;;2613638;54;20150;-70
2023/07/17 20:20:43;;;;;;;5.67;4.30;;;14.80;1.00;;;;;;2613672;54;20264;-70
2023/07/17 20:30:35;;;;;;;5.10;4.20;;;14.50;1.00;;;;;;2614257;54;20402;-71
2023/07/17 20:36:24;;;;;;;4.63;3.50;;;14.30;1.00;;;;;;2614383;54;20487;-70
2023/07/17 20:42:46;;;;;;;4.40;3.80;;;14.20;1.00;;;;;;2613816;54;20415;-70
2023/07/17 20:48:20;;;;;;;6.03;3.67;;;13.90;1.00;;;;;;2613292;54;20950;-70
2023/07/17 20:54:08;;;;;;;7.30;3.70;;;13.90;1.00;;;;;;2614393;54;20383;-71
2023/07/17 20:59:56;;;;;;;6.10;4.70;;;14.00;1.00;;;;;;2612579;54;20189;-71
2023/07/17 21:05:44;;;;;;;6.40;5.03;;;14.20;1.00;;;;;;2611772;54;20475;-69
2023/07/17 21:11:32;;;;;;;5.00;4.40;;;14.10;1.00;;;;;;2614178;54;20180;-69
2023/07/17 21:17:20;;;;;;;9.53;5.00;;;14.10;1.00;;;;;;2613618;54;20154;-69
2023/07/17 21:23:08;;;;;;;6.70;4.47;;;14.20;1.00;;;;;;2614181;54;20632;-69
2023/07/17 21:26:05;;;;;;;6.87;5.10;;;14.20;1.00;;;;;;2613604;54;20499;-69
2023/07/17 21:28:31;;;;;;;6.07;4.83;;;14.00;1.00;;;;;;2614286;54;21063;-70
2023/07/17 21:34:19;;;;;;;8.73;4.83;;;13.70;1.00;;;;;;2614156;54;20160;-71
2023/07/17 21:40:07;;;;;;;7.10;5.60;;;13.80;1.00;;;;;;2614113;54;20130;-70
2023/07/17 21:45:55;;;;;;;8.03;5.00;;;13.90;1.00;;;;;;2614038;54;20969;-69
2023/07/17 21:51:43;;;;;;;10.20;5.10;;;13.60;1.00;;;;;;2614139;54;20227;-70
2023/07/17 21:57:31;;;;;;;7.83;5.23;;;13.40;1.00;;;;;;2614068;54;20669;-71
2023/07/17 22:03:19;;;;;;;8.40;4.73;;;13.10;1.00;;;;;;2613635;54;20125;-70
2023/07/17 22:09:07;;;;;;;7.70;5.70;;;13.20;1.00;;;;;;2613386;39;20657;-70
2023/07/17 22:14:54;;;;;;;6.60;5.40;;;13.60;1.00;;;;;;2614153;54;20196;-70
2023/07/17 22:20:42;;;;;;;8.83;5.37;;;13.90;1.00;;;;;;2614189;39;20525;-70
2023/07/17 22:30:33;;;;;;;9.43;5.50;;;13.70;1.00;;;;;;2611175;54;20395;-69
2023/07/17 22:36:20;;;;;;;6.53;5.00;;;13.50;1.00;;;;;;2613813;54;20460;-71
2023/07/17 22:42:08;;;;;;;10.37;5.23;;;13.40;1.00;;;;;;2613136;46;20173;-69
2023/07/17 22:47:56;;;;;;;6.70;6.00;;;13.30;1.00;;;;;;2614112;54;20728;-70
2023/07/17 22:53:44;;;;;;;7.33;6.63;;;13.50;1.00;;;;;;2614899;54;20925;-70
2023/07/17 22:59:36;;;;;;;8.50;5.43;;;13.50;1.00;;;;;;2614130;39;20541;-70
2023/07/17 23:05:24;;;;;;;6.60;5.00;;;13.60;1.00;;;;;;2613110;54;21508;-69
2023/07/17 23:11:11;;;;;;;9.27;6.10;;;13.60;1.00;;;;;;2614358;54;20167;-74
2023/07/17 23:17:00;;;;;;;8.70;5.53;;;13.70;1.00;;;;;;2613709;54;20150;-71
2023/07/17 23:22:49;;;;;;;9.10;5.93;;;13.50;1.00;;;;;;2614133;39;20780;-71
2023/07/17 23:26:06;;;;;;;7.43;5.73;;;13.60;1.00;;;;;;2613199;51;20443;-70
2023/07/17 23:28:35;;;;;;;7.70;5.60;;;13.70;1.00;;;;;;2613440;54;20958;-71
2023/07/17 23:34:23;;;;;;;7.73;6.43;;;13.60;1.00;;;;;;2612448;54;20391;-71
2023/07/17 23:40:15;;;;;;;10.10;5.70;;;13.30;1.00;;;;;;2613127;54;20439;-71
2023/07/17 23:46:03;;;;;;;9.03;4.73;;;13.50;1.00;;;;;;2614216;54;20413;-71
2023/07/17 23:51:50;;;;;;;8.43;6.60;;;13.50;1.00;;;;;;2614517;54;20138;-70
2023/07/17 23:57:45;;;;;;;9.20;5.80;;;13.50;1.00;;;;;;2615074;54;20159;-71
